createdAt,value
2023-04-09T00:01:32.034Z,87.70
2023-04-09T00:03:59.420Z,87.90
2023-04-09T00:06:27.188Z,87.80
2023-04-09T00:08:54.626Z,87.60
2023-04-09T00:11:22.211Z,87.60
2023-04-09T00:13:49.606Z,87.70
2023-04-09T00:16:16.867Z,87.70
2023-04-09T00:18:44.154Z,88.00
2023-04-09T00:21:11.396Z,88.00
2023-04-09T00:23:38.593Z,88.20
2023-04-09T00:26:06.819Z,88.20
2023-04-09T00:28:34.746Z,88.40
2023-04-09T00:31:02.676Z,88.50
2023-04-09T00:33:30.580Z,88.80
2023-04-09T00:35:57.839Z,88.70
2023-04-09T00:38:25.273Z,88.70
2023-04-09T00:40:52.703Z,88.60
2023-04-09T00:43:20.528Z,88.70
2023-04-09T00:45:47.947Z,88.80
2023-04-09T00:48:17.001Z,89.20
2023-04-09T00:50:44.349Z,89.60
2023-04-09T00:53:12.797Z,89.80
2023-04-09T00:55:41.428Z,90.00
2023-04-09T00:58:08.769Z,90.00
2023-04-09T01:00:36.116Z,90.00
2023-04-09T01:03:05.343Z,90.20
2023-04-09T01:05:43.275Z,90.20
2023-04-09T01:08:41.921Z,89.90
2023-04-09T01:11:38.605Z,90.00
2023-04-09T01:14:35.881Z,89.70
2023-04-09T01:17:18.776Z,89.70
2023-04-09T01:20:05.311Z,89.90
2023-04-09T01:22:47.808Z,90.10
2023-04-09T01:25:41.207Z,89.80
2023-04-09T01:28:28.468Z,89.50
2023-04-09T01:31:02.725Z,89.10
2023-04-09T01:33:32.591Z,88.90
2023-04-09T01:36:00.507Z,88.80
2023-04-09T01:38:28.272Z,88.80
2023-04-09T01:40:57.384Z,88.90
2023-04-09T01:43:26.114Z,88.90
2023-04-09T01:45:55.104Z,88.90
2023-04-09T01:48:23.550Z,88.80
2023-04-09T01:50:51.890Z,89.00
2023-04-09T01:53:19.589Z,88.80
2023-04-09T01:55:46.883Z,88.80
2023-04-09T01:58:14.241Z,88.80
2023-04-09T02:00:47.472Z,88.70
2023-04-09T02:03:27.307Z,88.70
2023-04-09T02:06:22.605Z,88.60
2023-04-09T02:08:52.674Z,88.50
2023-04-09T02:11:23.493Z,88.70
2023-04-09T02:13:55.523Z,88.80
2023-04-09T02:16:23.613Z,88.70
2023-04-09T02:18:56.398Z,88.70
2023-04-09T02:21:24.394Z,88.70
2023-04-09T02:23:51.675Z,88.60
2023-04-09T02:26:18.885Z,88.60
2023-04-09T02:28:46.336Z,88.80
2023-04-09T02:31:13.672Z,88.70
2023-04-09T02:33:41.554Z,88.60
2023-04-09T02:36:13.137Z,88.70
2023-04-09T02:38:42.010Z,88.70
2023-04-09T02:41:10.353Z,88.60
2023-04-09T02:43:37.995Z,88.60
2023-04-09T02:46:07.355Z,88.60
2023-04-09T02:48:35.446Z,88.60
2023-04-09T02:51:06.251Z,88.60
2023-04-09T02:53:33.651Z,88.50
2023-04-09T02:56:01.397Z,88.80
2023-04-09T02:58:28.628Z,89.10
2023-04-09T03:00:55.901Z,89.00
2023-04-09T03:03:23.288Z,88.60
2023-04-09T03:05:50.636Z,88.50
2023-04-09T03:08:17.913Z,88.40
2023-04-09T03:10:45.264Z,88.80
2023-04-09T03:13:12.745Z,88.70
2023-04-09T03:15:40.346Z,88.70
2023-04-09T03:18:07.627Z,88.60
2023-04-09T03:20:38.392Z,88.80
2023-04-09T03:23:06.090Z,88.80
2023-04-09T03:25:38.710Z,89.00
2023-04-09T03:28:12.824Z,88.90
2023-04-09T03:30:47.115Z,89.10
2023-04-09T03:33:15.223Z,89.10
2023-04-09T03:35:49.971Z,89.20
2023-04-09T03:38:21.806Z,89.30
2023-04-09T03:40:49.804Z,89.30
2023-04-09T03:43:17.013Z,89.40
2023-04-09T03:45:49.638Z,89.30
2023-04-09T03:48:22.416Z,89.30
2023-04-09T03:50:50.815Z,89.20
2023-04-09T03:53:25.228Z,89.20
2023-04-09T03:55:58.499Z,89.20
2023-04-09T03:58:27.495Z,89.30
2023-04-09T04:00:55.154Z,89.20
2023-04-09T04:03:36.831Z,89.30
2023-04-09T04:06:10.780Z,89.30
2023-04-09T04:08:46.635Z,89.20
2023-04-09T04:11:14.264Z,89.00
2023-04-09T04:13:41.617Z,89.10
2023-04-09T04:16:10.628Z,89.20
2023-04-09T04:18:40.398Z,89.50
2023-04-09T04:21:13.507Z,89.60
2023-04-09T04:23:44.038Z,89.50
2023-04-09T04:26:24.656Z,89.60
2023-04-09T04:28:52.129Z,89.60
2023-04-09T04:31:33.476Z,89.40
2023-04-09T04:34:00.754Z,89.10
2023-04-09T04:36:28.538Z,88.80
2023-04-09T04:38:56.015Z,88.50
2023-04-09T04:41:31.463Z,88.40
2023-04-09T04:44:08.720Z,88.30
2023-04-09T04:46:36.101Z,88.30
2023-04-09T04:49:03.480Z,88.20
2023-04-09T04:51:32.292Z,88.20
2023-04-09T04:54:07.426Z,88.10
2023-04-09T04:56:35.386Z,88.30
2023-04-09T04:59:08.451Z,88.50
2023-04-09T05:01:49.669Z,88.40
2023-04-09T05:04:16.882Z,88.90
2023-04-09T05:06:44.138Z,88.70
2023-04-09T05:09:17.092Z,88.40
2023-04-09T05:11:57.126Z,88.30
2023-04-09T05:14:25.474Z,88.00
2023-04-09T05:16:52.906Z,87.90
2023-04-09T05:19:24.277Z,87.70
2023-04-09T05:21:57.521Z,88.00
2023-04-09T05:24:27.948Z,87.80
2023-04-09T05:26:55.848Z,87.60
2023-04-09T05:29:23.668Z,87.30
2023-04-09T05:31:53.919Z,87.40
2023-04-09T05:34:27.582Z,87.30
2023-04-09T05:36:56.790Z,87.10
2023-04-09T05:39:25.402Z,87.50
2023-04-09T05:41:53.274Z,87.50
2023-04-09T05:44:30.781Z,87.70
2023-04-09T05:47:05.391Z,87.30
2023-04-09T05:49:50.305Z,87.50
2023-04-09T05:52:18.318Z,87.60
2023-04-09T05:54:45.516Z,87.40
2023-04-09T05:57:16.490Z,87.40
2023-04-09T05:59:48.385Z,87.00
2023-04-09T06:02:21.554Z,86.60
2023-04-09T06:04:48.854Z,86.40
2023-04-09T06:07:16.698Z,86.10
2023-04-09T06:09:44.232Z,85.60
2023-04-09T06:12:11.451Z,85.20
2023-04-09T06:14:39.470Z,84.60
2023-04-09T06:17:06.666Z,83.90
2023-04-09T06:19:34.094Z,84.10
2023-04-09T06:22:01.433Z,84.30
2023-04-09T06:24:32.258Z,83.70
2023-04-09T06:26:59.885Z,83.20
2023-04-09T06:29:27.305Z,83.30
2023-04-09T06:31:54.552Z,83.20
2023-04-09T06:34:21.816Z,83.40
2023-04-09T06:36:49.197Z,83.60
2023-04-09T06:39:19.662Z,84.20
2023-04-09T06:41:50.228Z,84.30
2023-04-09T06:44:34.350Z,83.30
2023-04-09T06:47:03.604Z,83.50
2023-04-09T06:49:31.037Z,82.80
2023-04-09T06:51:58.179Z,81.80
2023-04-09T06:54:25.393Z,81.10
2023-04-09T06:56:52.630Z,80.90
2023-04-09T06:59:19.902Z,81.20
2023-04-09T07:01:47.778Z,80.90
2023-04-09T07:04:15.523Z,80.30
2023-04-09T07:06:42.933Z,80.30
2023-04-09T07:09:10.168Z,80.50
2023-04-09T07:11:37.534Z,80.50
2023-04-09T07:14:04.755Z,80.80
2023-04-09T07:16:32.115Z,81.10
2023-04-09T07:18:59.627Z,80.50
2023-04-09T07:21:28.308Z,80.20
2023-04-09T07:23:56.362Z,79.80
2023-04-09T07:26:23.589Z,79.10
2023-04-09T07:28:51.568Z,79.00
2023-04-09T07:31:18.911Z,79.20
2023-04-09T07:33:46.141Z,79.10
2023-04-09T07:36:18.369Z,79.60
2023-04-09T07:38:57.030Z,79.60
2023-04-09T07:41:28.187Z,79.90
2023-04-09T07:43:55.541Z,79.00
2023-04-09T07:46:22.806Z,78.70
2023-04-09T07:48:50.648Z,79.20
2023-04-09T07:51:18.171Z,78.20
2023-04-09T07:53:45.621Z,77.70
2023-04-09T07:56:13.669Z,76.90
2023-04-09T07:58:40.959Z,76.60
2023-04-09T08:01:08.825Z,77.10
2023-04-09T08:03:36.796Z,76.20
2023-04-09T08:06:04.477Z,75.50
2023-04-09T08:08:31.653Z,76.80
2023-04-09T08:10:58.912Z,76.20
2023-04-09T08:13:26.239Z,75.70
2023-04-09T08:15:53.691Z,76.20
2023-04-09T08:18:20.965Z,75.70
2023-04-09T08:20:48.347Z,76.10
2023-04-09T08:23:15.643Z,75.10
2023-04-09T08:25:42.938Z,73.10
2023-04-09T08:28:10.189Z,72.60
2023-04-09T08:30:37.471Z,70.20
2023-04-09T08:33:05.425Z,72.00
2023-04-09T08:35:33.218Z,72.10
2023-04-09T08:38:00.428Z,71.20
2023-04-09T08:40:27.690Z,69.90
2023-04-09T08:42:59.147Z,70.00
2023-04-09T08:45:26.376Z,70.10
2023-04-09T08:47:53.673Z,70.00
2023-04-09T08:50:21.211Z,69.00
2023-04-09T08:52:49.518Z,68.40
2023-04-09T08:55:16.958Z,65.60
2023-04-09T08:57:44.488Z,64.10
2023-04-09T09:00:12.476Z,66.50
2023-04-09T09:03:07.029Z,64.50
2023-04-09T09:05:39.797Z,65.20
2023-04-09T09:08:09.132Z,65.60
2023-04-09T09:10:41.960Z,66.00
2023-04-09T09:13:28.241Z,67.40
2023-04-09T09:16:12.875Z,68.30
2023-04-09T09:18:42.546Z,65.50
2023-04-09T09:21:12.017Z,65.80
2023-04-09T09:23:39.524Z,66.30
2023-04-09T09:26:14.674Z,67.50
2023-04-09T09:28:42.012Z,67.00
2023-04-09T09:31:10.086Z,66.70
2023-04-09T09:33:37.504Z,66.30
2023-04-09T09:36:05.281Z,65.40
2023-04-09T09:38:32.498Z,64.30
2023-04-09T09:41:17.934Z,63.50
2023-04-09T09:43:45.792Z,64.60
2023-04-09T09:46:13.531Z,61.60
2023-04-09T09:48:41.297Z,62.40
2023-04-09T09:51:11.064Z,63.80
2023-04-09T09:53:39.859Z,64.50
2023-04-09T09:56:18.230Z,66.20
2023-04-09T09:59:13.157Z,65.70
2023-04-09T10:01:41.076Z,62.30
2023-04-09T10:04:13.580Z,60.80
2023-04-09T10:06:44.185Z,61.70
2023-04-09T10:09:12.857Z,59.10
2023-04-09T10:11:45.521Z,59.70
2023-04-09T10:14:13.705Z,58.50
2023-04-09T10:16:41.987Z,59.50
2023-04-09T10:19:14.159Z,58.40
2023-04-09T10:21:47.722Z,60.20
2023-04-09T10:24:17.145Z,59.20
2023-04-09T10:26:45.159Z,59.90
2023-04-09T10:29:14.613Z,58.50
2023-04-09T10:32:06.345Z,57.40
2023-04-09T10:34:42.480Z,58.90
2023-04-09T10:37:15.073Z,57.20
2023-04-09T10:39:47.443Z,58.10
2023-04-09T10:42:19.430Z,60.80
2023-04-09T10:44:46.712Z,57.40
2023-04-09T10:47:32.924Z,57.10
2023-04-09T10:50:16.112Z,59.10
2023-04-09T10:52:44.258Z,61.80
2023-04-09T10:55:31.449Z,59.70
2023-04-09T10:57:58.839Z,61.90
2023-04-09T11:00:26.377Z,61.20
2023-04-09T11:03:02.967Z,62.40
2023-04-09T11:05:31.786Z,60.00
2023-04-09T11:08:04.863Z,60.00
2023-04-09T11:10:33.352Z,59.20
2023-04-09T11:13:01.168Z,58.70
2023-04-09T11:15:29.403Z,58.50
2023-04-09T11:17:57.732Z,60.00
2023-04-09T11:20:25.994Z,58.90
2023-04-09T11:22:55.208Z,55.80
2023-04-09T11:25:27.916Z,55.10
2023-04-09T11:27:55.686Z,55.60
2023-04-09T11:30:23.210Z,56.90
2023-04-09T11:32:51.178Z,57.20
2023-04-09T11:35:20.530Z,56.30
2023-04-09T11:37:50.075Z,56.10
2023-04-09T11:43:29.202Z,53.90
2023-04-09T11:45:57.631Z,51.90
2023-04-09T11:48:25.570Z,50.10
2023-04-09T11:50:53.650Z,52.40
2023-04-09T11:53:22.563Z,53.70
2023-04-09T11:55:51.869Z,53.70
2023-04-09T11:58:22.648Z,52.10
2023-04-09T12:00:53.459Z,55.70
2023-04-09T12:03:32.956Z,52.70
2023-04-09T12:06:02.945Z,55.40
2023-04-09T12:08:31.433Z,53.80
2023-04-09T12:11:09.066Z,53.30
2023-04-09T12:13:36.348Z,52.30
2023-04-09T12:16:03.955Z,54.50
2023-04-09T12:18:31.299Z,52.40
2023-04-09T12:20:59.070Z,53.10
2023-04-09T12:23:26.269Z,52.10
2023-04-09T12:25:55.211Z,52.70
2023-04-09T12:28:22.428Z,52.80
2023-04-09T12:30:51.524Z,51.60
2023-04-09T12:33:19.215Z,51.40
2023-04-09T12:35:46.508Z,46.70
2023-04-09T12:38:13.832Z,52.50
2023-04-09T12:40:41.351Z,49.90
2023-04-09T12:43:08.571Z,50.40
2023-04-09T12:45:36.572Z,50.00
2023-04-09T12:48:03.938Z,48.70
2023-04-09T12:50:31.316Z,48.20
2023-04-09T12:52:58.541Z,44.00
2023-04-09T12:55:25.748Z,44.00
2023-04-09T12:57:53.115Z,47.60
2023-04-09T13:00:20.671Z,49.60
2023-04-09T13:02:48.097Z,47.10
2023-04-09T13:05:15.402Z,45.70
2023-04-09T13:07:43.612Z,44.30
2023-04-09T13:10:11.142Z,46.90
2023-04-09T13:12:38.410Z,43.50
2023-04-09T13:15:06.595Z,44.40
2023-04-09T13:17:33.960Z,44.60
2023-04-09T13:20:01.582Z,44.40
2023-04-09T13:22:28.961Z,42.70
2023-04-09T13:24:56.257Z,39.70
2023-04-09T13:27:23.655Z,39.80
2023-04-09T13:29:51.053Z,38.60
2023-04-09T13:32:20.948Z,36.60
2023-04-09T13:34:48.218Z,36.90
2023-04-09T13:37:16.008Z,35.60
2023-04-09T13:39:44.703Z,35.90
2023-04-09T13:42:13.969Z,34.20
2023-04-09T13:44:44.602Z,33.70
2023-04-09T13:47:13.229Z,32.20
2023-04-09T13:49:40.826Z,32.30
2023-04-09T13:52:08.477Z,31.30
2023-04-09T13:54:36.102Z,29.40
2023-04-09T13:57:03.882Z,30.30
2023-04-09T13:59:31.153Z,31.00
2023-04-09T14:01:58.502Z,29.90
2023-04-09T14:04:26.102Z,28.30
2023-04-09T14:06:53.391Z,26.50
2023-04-09T14:09:20.717Z,26.60
2023-04-09T14:11:47.967Z,26.80
2023-04-09T14:14:15.554Z,26.20
2023-04-09T14:16:42.788Z,26.90
2023-04-09T14:19:10.409Z,26.70
2023-04-09T14:21:37.661Z,27.00
2023-04-09T14:24:04.953Z,27.00
2023-04-09T14:26:32.167Z,26.10
2023-04-09T14:28:59.358Z,26.20
2023-04-09T14:31:26.665Z,26.20
2023-04-09T14:33:53.917Z,25.70
2023-04-09T14:36:21.366Z,25.50
2023-04-09T14:38:49.142Z,25.10
2023-04-09T14:41:16.976Z,25.40
2023-04-09T14:43:44.309Z,25.70
2023-04-09T14:46:12.169Z,25.00
2023-04-09T14:48:40.285Z,25.70
2023-04-09T14:51:10.700Z,25.70
2023-04-09T14:53:38.242Z,26.00
2023-04-09T14:56:05.896Z,24.50
2023-04-09T14:58:33.117Z,23.20
2023-04-09T15:01:00.386Z,22.40
2023-04-09T15:03:27.814Z,22.60
2023-04-09T15:05:55.474Z,22.30
2023-04-09T15:08:23.671Z,21.80
2023-04-09T15:10:51.189Z,22.60
2023-04-09T15:13:18.319Z,22.40
2023-04-09T15:15:45.666Z,22.90
2023-04-09T15:18:12.894Z,22.50
2023-04-09T15:20:40.713Z,22.70
2023-04-09T15:23:07.910Z,23.60
2023-04-09T15:25:35.332Z,22.70
2023-04-09T15:28:03.255Z,22.20
2023-04-09T15:30:30.950Z,22.00
2023-04-09T15:32:58.492Z,21.80
2023-04-09T15:35:29.660Z,22.10
2023-04-09T15:37:57.360Z,22.30
2023-04-09T15:40:24.765Z,22.80
2023-04-09T15:42:52.052Z,22.20
2023-04-09T15:45:19.352Z,22.30
2023-04-09T15:47:47.227Z,21.70
2023-04-09T15:50:14.767Z,20.90
2023-04-09T15:52:42.113Z,21.80
2023-04-09T15:55:09.815Z,22.50
2023-04-09T15:57:38.491Z,22.50
2023-04-09T16:00:10.690Z,22.90
2023-04-09T16:02:41.351Z,21.90
2023-04-09T16:05:08.809Z,22.50
2023-04-09T16:07:36.043Z,22.40
2023-04-09T16:10:04.622Z,22.50
2023-04-09T16:12:32.027Z,22.30
2023-04-09T16:14:59.633Z,22.60
2023-04-09T16:17:26.864Z,23.30
2023-04-09T16:19:54.164Z,25.20
2023-04-09T16:22:21.460Z,24.70
2023-04-09T16:24:48.741Z,24.10
2023-04-09T16:27:16.714Z,24.20
2023-04-09T16:29:44.008Z,24.10
2023-04-09T16:32:11.326Z,24.20
2023-04-09T16:34:38.579Z,24.50
2023-04-09T16:37:05.971Z,24.50
2023-04-09T16:39:33.306Z,24.40
2023-04-09T16:42:01.568Z,24.50
2023-04-09T16:44:28.830Z,25.30
2023-04-09T16:46:56.481Z,25.20
2023-04-09T16:49:23.809Z,24.70
2023-04-09T16:51:53.094Z,25.20
2023-04-09T16:54:20.807Z,25.30
2023-04-09T16:56:48.756Z,25.80
2023-04-09T16:59:18.305Z,26.40
2023-04-09T17:01:45.844Z,26.50
2023-04-09T17:04:13.185Z,26.90
2023-04-09T17:06:40.515Z,27.40
2023-04-09T17:09:07.974Z,27.60
2023-04-09T17:11:35.448Z,27.60
2023-04-09T17:14:02.729Z,29.70
2023-04-09T17:16:30.027Z,31.30
2023-04-09T17:18:57.400Z,32.30
2023-04-09T17:21:24.660Z,34.40
2023-04-09T17:23:52.063Z,35.80
2023-04-09T17:26:20.672Z,36.90
2023-04-09T17:28:47.941Z,37.90
2023-04-09T17:31:16.032Z,39.50
2023-04-09T17:33:48.038Z,40.60
2023-04-09T17:36:18.460Z,40.60
2023-04-09T17:38:47.743Z,41.80
2023-04-09T17:41:14.901Z,43.00
2023-04-09T17:43:42.063Z,43.60
2023-04-09T17:46:09.646Z,43.60
2023-04-09T17:48:37.304Z,44.30
2023-04-09T17:51:05.590Z,45.30
2023-04-09T17:53:32.923Z,45.50
2023-04-09T17:56:03.005Z,45.80
2023-04-09T17:58:30.290Z,46.60
2023-04-09T18:00:58.690Z,46.60
2023-04-09T18:03:26.547Z,46.60
2023-04-09T18:05:54.375Z,46.80
2023-04-09T18:08:22.245Z,47.50
2023-04-09T18:11:05.191Z,47.90
2023-04-09T18:13:39.737Z,49.20
2023-04-09T18:16:12.235Z,49.50
2023-04-09T18:18:40.392Z,51.20
2023-04-09T18:21:07.787Z,52.00
2023-04-09T18:23:35.551Z,52.70
2023-04-09T18:26:03.049Z,53.10
2023-04-09T18:28:30.468Z,54.50
2023-04-09T18:30:58.957Z,54.20
2023-04-09T18:33:27.128Z,54.90
2023-04-09T18:35:54.680Z,54.80
2023-04-09T18:38:22.687Z,55.20
2023-04-09T18:40:50.013Z,55.50
2023-04-09T18:43:17.460Z,55.80
2023-04-09T18:45:44.984Z,56.90
2023-04-09T18:48:12.445Z,57.00
2023-04-09T18:50:39.889Z,57.20
2023-04-09T18:53:07.738Z,57.30
2023-04-09T18:55:37.863Z,55.80
2023-04-09T18:58:08.895Z,57.10
2023-04-09T19:00:36.627Z,57.40
2023-04-09T19:03:04.747Z,57.20
2023-04-09T19:05:33.009Z,56.70
2023-04-09T19:08:05.335Z,57.90
2023-04-09T19:10:32.982Z,58.50
2023-04-09T19:13:00.610Z,58.90
2023-04-09T19:15:31.255Z,59.00
2023-04-09T19:17:59.087Z,59.00
2023-04-09T19:20:27.239Z,59.00
2023-04-09T19:22:56.610Z,58.80
2023-04-09T19:25:24.146Z,58.30
2023-04-09T19:27:53.542Z,57.70
2023-04-09T19:30:21.356Z,57.50
2023-04-09T19:32:48.922Z,58.90
2023-04-09T19:35:16.808Z,59.20
2023-04-09T19:37:45.306Z,58.90
2023-04-09T19:40:15.985Z,60.20
2023-04-09T19:42:43.759Z,59.20
2023-04-09T19:45:12.102Z,60.20
2023-04-09T19:47:41.738Z,59.10
2023-04-09T19:50:11.160Z,59.10
2023-04-09T19:52:40.569Z,59.90
2023-04-09T19:55:08.705Z,61.20
2023-04-09T19:57:36.333Z,60.80
2023-04-09T20:00:05.082Z,60.60
2023-04-09T20:02:40.115Z,60.10
2023-04-09T20:05:08.813Z,60.00
2023-04-09T20:07:36.476Z,60.30
2023-04-09T20:10:04.446Z,60.90
2023-04-09T20:12:32.146Z,61.20
2023-04-09T20:15:02.156Z,61.30
2023-04-09T20:17:30.051Z,60.80
2023-04-09T20:19:57.929Z,61.30
2023-04-09T20:22:25.993Z,62.20
2023-04-09T20:24:53.548Z,61.90
2023-04-09T20:27:22.758Z,61.20
2023-04-09T20:29:50.371Z,61.00
2023-04-09T20:32:18.391Z,61.80
2023-04-09T20:34:46.231Z,62.90
2023-04-09T20:37:13.858Z,63.70
2023-04-09T20:39:41.707Z,63.90
2023-04-09T20:42:09.065Z,64.00
2023-04-09T20:44:38.197Z,64.00
2023-04-09T20:47:07.472Z,63.90
2023-04-09T20:49:34.660Z,63.70
2023-04-09T20:52:01.978Z,63.70
2023-04-09T20:54:30.356Z,63.70
2023-04-09T20:56:57.840Z,63.60
2023-04-09T20:59:26.049Z,63.80
2023-04-09T21:01:55.398Z,62.70
2023-04-09T21:04:24.025Z,63.10
2023-04-09T21:06:51.941Z,62.90
2023-04-09T21:09:19.157Z,63.50
2023-04-09T21:11:46.916Z,63.70
2023-04-09T21:14:14.890Z,62.90
2023-04-09T21:16:42.265Z,63.00
2023-04-09T21:19:09.644Z,63.00
2023-04-09T21:21:37.525Z,63.70
2023-04-09T21:24:04.795Z,64.60
2023-04-09T21:26:48.755Z,64.40
2023-04-09T21:29:18.613Z,64.50
2023-04-09T21:31:45.903Z,64.40
2023-04-09T21:34:13.255Z,64.90
2023-04-09T21:36:40.659Z,65.70
2023-04-09T21:39:07.953Z,66.20
2023-04-09T21:41:35.443Z,65.80
2023-04-09T21:44:08.030Z,64.60
2023-04-09T21:46:37.251Z,64.40
2023-04-09T21:49:05.047Z,65.40
2023-04-09T21:51:32.829Z,66.10
2023-04-09T21:54:11.057Z,67.10
2023-04-09T21:56:40.856Z,67.80
2023-04-09T21:59:11.575Z,68.70
2023-04-09T22:01:40.195Z,68.50
2023-04-09T22:04:10.019Z,68.10
2023-04-09T22:06:37.744Z,67.90
2023-04-09T22:09:05.192Z,67.80
2023-04-09T22:11:34.489Z,67.70
2023-04-09T22:14:01.836Z,67.90
2023-04-09T22:16:29.317Z,68.60
2023-04-09T22:18:57.161Z,68.90
2023-04-09T22:21:25.176Z,68.90
2023-04-09T22:23:52.462Z,69.00
2023-04-09T22:26:19.961Z,69.00
2023-04-09T22:28:47.211Z,69.20
2023-04-09T22:31:14.754Z,69.40
2023-04-09T22:33:42.045Z,69.40
2023-04-09T22:36:09.479Z,69.30
2023-04-09T22:38:36.903Z,69.40
2023-04-09T22:41:04.403Z,69.60
2023-04-09T22:43:31.858Z,70.10
2023-04-09T22:45:59.066Z,70.90
2023-04-09T22:48:26.248Z,71.40
2023-04-09T22:50:53.532Z,71.60
2023-04-09T22:53:21.711Z,71.80
2023-04-09T22:55:54.507Z,71.60
2023-04-09T22:58:22.018Z,71.40
2023-04-09T23:00:50.468Z,71.10
2023-04-09T23:03:18.038Z,71.00
2023-04-09T23:05:45.451Z,71.10
2023-04-09T23:08:12.776Z,71.40
2023-04-09T23:10:40.336Z,71.50
2023-04-09T23:13:07.541Z,71.90
2023-04-09T23:15:34.894Z,72.80
2023-04-09T23:18:02.228Z,73.30
2023-04-09T23:20:29.710Z,73.30
2023-04-09T23:22:56.949Z,73.50
2023-04-09T23:25:24.280Z,73.50
2023-04-09T23:27:51.593Z,73.20
2023-04-09T23:30:20.404Z,72.40
2023-04-09T23:32:48.673Z,72.90
2023-04-09T23:35:16.762Z,73.30
2023-04-09T23:37:44.116Z,73.30
2023-04-09T23:40:11.901Z,73.10
2023-04-09T23:42:39.318Z,73.30
2023-04-09T23:45:07.243Z,73.20
2023-04-09T23:47:36.478Z,73.00
2023-04-09T23:50:07.868Z,72.90
2023-04-09T23:52:37.225Z,73.30
2023-04-09T23:55:04.769Z,73.70
2023-04-09T23:57:31.987Z,74.60
2023-04-09T23:59:59.246Z,74.80
